^^
Grace C. Lehan Memorial Weather Station Historical Data
Daily Summary for January 10, 2022 Units:  Both    English   Metric
Daily Weekly Monthly Yearly
  High: Low: Average:
Temperature: 38 °F /  3.3 °C 18.3 °F /  -7.6 °C 29 °F /  -1.7 °C
Dew Point: 35.2 °F /  1.8 °C 9 °F /  -12.8 °C 15.5 °F /  -9.2 °C
Humidity: 89.7% 44.1% 57%
Wind Speed: 18mph /  29km/h - 4.3mph /  6.9km/h
Wind Gust: 28mph /  45.1km/h - -
Wind- - WNW
Pressure: 30.10 in /  1019.2 hPa 29.89 in /  1012.1 hPa -
Precipitation: 0.00 in /  0 mm    
 
 
Tabular Data for January 10, 2022
Time Temperature Dew Point Pressure Wind Wind Speed Wind Gust Humidity Rainfall Rate (Hourly) solar
00:04 38 °F /  3.3 °C 35.2 °F /  1.8 °C 29.89in /  1012.1hPa NW 4.5mph /  7.2km/h 16mph /  25.7km/h 89.7% 0.00in /  0mm 0 W/m2
00:09 37.9 °F /  3.3 °C 34.9 °F /  1.6 °C 29.89in /  1012.1hPa NW 6.7mph /  10.8km/h 16mph /  25.7km/h 88.7% 0.00in /  0mm 0 W/m2
00:14 37.8 °F /  3.2 °C 34.5 °F /  1.4 °C 29.89in /  1012.1hPa WNW 4.6mph /  7.4km/h 16mph /  25.7km/h 87.7% 0.00in /  0mm 0 W/m2
00:19 37.8 °F /  3.2 °C 34.2 °F /  1.2 °C 29.89in /  1012.1hPa NW 5.8mph /  9.3km/h 16mph /  25.7km/h 86.5% 0.00in /  0mm 0 W/m2
00:24 37.7 °F /  3.2 °C 33.8 °F /  1 °C 29.89in /  1012.1hPa WNW 9mph /  14.5km/h 18mph /  29km/h 85.6% 0.00in /  0mm 0 W/m2
00:29 37.7 °F /  3.2 °C 33.6 °F /  0.9 °C 29.89in /  1012.1hPa NW 5.8mph /  9.3km/h 18mph /  29km/h 85% 0.00in /  0mm 0 W/m2
00:34 37.7 °F /  3.2 °C 33.4 °F /  0.8 °C 29.89in /  1012.1hPa NW 7mph /  11.3km/h 18mph /  29km/h 84.1% 0.00in /  0mm 0 W/m2
00:39 37.7 °F /  3.2 °C 33.2 °F /  0.7 °C 29.90in /  1012.4hPa NW 5.7mph /  9.2km/h 16mph /  25.7km/h 83.5% 0.00in /  0mm 0 W/m2
00:44 37.7 °F /  3.2 °C 33 °F /  0.6 °C 29.90in /  1012.4hPa WNW 5.5mph /  8.9km/h 16mph /  25.7km/h 83% 0.00in /  0mm 0 W/m2
00:49 37.6 °F /  3.1 °C 32.7 °F /  0.4 °C 29.90in /  1012.4hPa WNW 5.1mph /  8.2km/h 16mph /  25.7km/h 82.2% 0.00in /  0mm 0 W/m2
00:54 37.5 °F /  3.1 °C 32.4 °F /  0.2 °C 29.90in /  1012.4hPa NW 6.2mph /  10km/h 18mph /  29km/h 81.4% 0.00in /  0mm 0 W/m2
00:59 37.5 °F /  3.1 °C 31.8 °F /  -0.1 °C 29.90in /  1012.4hPa NW 8.5mph /  13.7km/h 19mph /  30.6km/h 79.5% 0.00in /  0mm 0 W/m2
01:04 37.5 °F /  3.1 °C 31.6 °F /  -0.2 °C 29.90in /  1012.4hPa WNW 7.4mph /  11.9km/h 19mph /  30.6km/h 79% 0.00in /  0mm 0 W/m2
01:09 37.4 °F /  3 °C 31.2 °F /  -0.4 °C 29.90in /  1012.4hPa NW 6.7mph /  10.8km/h 19mph /  30.6km/h 78% 0.00in /  0mm 0 W/m2
01:14 37.4 °F /  3 °C 30.9 °F /  -0.6 °C 29.90in /  1012.4hPa WNW 7.1mph /  11.4km/h 19mph /  30.6km/h 77.2% 0.00in /  0mm 0 W/m2
01:19 37.3 °F /  2.9 °C 30.4 °F /  -0.9 °C 29.90in /  1012.4hPa NW 5.9mph /  9.5km/h 19mph /  30.6km/h 75.8% 0.00in /  0mm 0 W/m2
01:24 37.3 °F /  2.9 °C 30.1 °F /  -1.1 °C 29.90in /  1012.4hPa WNW 5.6mph /  9km/h 19mph /  30.6km/h 75% 0.00in /  0mm 0 W/m2
01:29 37.2 °F /  2.9 °C 29.6 °F /  -1.3 °C 29.90in /  1012.4hPa NW 10.4mph /  16.7km/h 20mph /  32.2km/h 73.7% 0.00in /  0mm 0 W/m2
01:34 37.1 °F /  2.8 °C 28.9 °F /  -1.7 °C 29.90in /  1012.4hPa NW 8.6mph /  13.8km/h 20mph /  32.2km/h 71.9% 0.00in /  0mm 0 W/m2
01:39 37.1 °F /  2.8 °C 28.5 °F /  -1.9 °C 29.90in /  1012.4hPa NW 7.1mph /  11.4km/h 17mph /  27.4km/h 70.8% 0.00in /  0mm 0 W/m2
01:44 37 °F /  2.8 °C 27.8 °F /  -2.3 °C 29.91in /  1012.8hPa WNW 6.8mph /  10.9km/h 18mph /  29km/h 69.1% 0.00in /  0mm 0 W/m2
01:49 36.9 °F /  2.7 °C 27.7 °F /  -2.4 °C 29.91in /  1012.8hPa NW 6.5mph /  10.5km/h 18mph /  29km/h 69% 0.00in /  0mm 0 W/m2
01:54 36.8 °F /  2.7 °C 27.2 °F /  -2.7 °C 29.91in /  1012.8hPa NW 7.1mph /  11.4km/h 18mph /  29km/h 68% 0.00in /  0mm 0 W/m2
01:59 36.8 °F /  2.7 °C 26.9 °F /  -2.8 °C 29.92in /  1013.1hPa WNW 6.6mph /  10.6km/h 18mph /  29km/h 67% 0.00in /  0mm 0 W/m2
02:04 36.8 °F /  2.7 °C 26.8 °F /  -2.9 °C 29.92in /  1013.1hPa NW 1mph /  1.6km/h 18mph /  29km/h 66.8% 0.00in /  0mm 0 W/m2
02:09 36.7 °F /  2.6 °C 27.3 °F /  -2.6 °C 29.92in /  1013.1hPa WNW 2.8mph /  4.5km/h 11mph /  17.7km/h 68.6% 0.00in /  0mm 0 W/m2
02:14 36.5 °F /  2.5 °C 26.7 °F /  -2.9 °C 29.92in /  1013.1hPa NW 5mph /  8km/h 15mph /  24.1km/h 67.2% 0.00in /  0mm 0 W/m2
02:19 36.4 °F /  2.4 °C 26.2 °F /  -3.2 °C 29.92in /  1013.1hPa NW 4.7mph /  7.6km/h 15mph /  24.1km/h 66% 0.00in /  0mm 0 W/m2
02:24 36.4 °F /  2.4 °C 26.1 °F /  -3.3 °C 29.93in /  1013.4hPa NW 2.7mph /  4.3km/h 15mph /  24.1km/h 66% 0.00in /  0mm 0 W/m2
02:29 36.4 °F /  2.4 °C 26.4 °F /  -3.1 °C 29.93in /  1013.4hPa NW 7.2mph /  11.6km/h 15mph /  24.1km/h 66.8% 0.00in /  0mm 0 W/m2
02:34 36.3 °F /  2.4 °C 26 °F /  -3.3 °C 29.93in /  1013.4hPa NW 7.8mph /  12.6km/h 15mph /  24.1km/h 65.8% 0.00in /  0mm 0 W/m2
02:39 36.2 °F /  2.3 °C 25.2 °F /  -3.8 °C 29.93in /  1013.4hPa NW 7.7mph /  12.4km/h 16mph /  25.7km/h 64.2% 0.00in /  0mm 0 W/m2
02:44 36 °F /  2.2 °C 25 °F /  -3.9 °C 29.94in /  1013.8hPa NW 7.1mph /  11.4km/h 19mph /  30.6km/h 63.9% 0.00in /  0mm 0 W/m2
02:49 35.8 °F /  2.1 °C 24.6 °F /  -4.1 °C 29.94in /  1013.8hPa NW 4.9mph /  7.9km/h 19mph /  30.6km/h 63.3% 0.00in /  0mm 0 W/m2
02:54 35.6 °F /  2 °C 24.6 °F /  -4.1 °C 29.94in /  1013.8hPa WNW 4.9mph /  7.9km/h 19mph /  30.6km/h 64% 0.00in /  0mm 0 W/m2
02:59 35.3 °F /  1.8 °C 23.8 °F /  -4.6 °C 29.94in /  1013.8hPa NW 8.8mph /  14.2km/h 19mph /  30.6km/h 62.5% 0.00in /  0mm 0 W/m2
03:04 35.1 °F /  1.7 °C 23.4 °F /  -4.8 °C 29.94in /  1013.8hPa NW 9.5mph /  15.3km/h 24mph /  38.6km/h 62% 0.00in /  0mm 0 W/m2
03:09 34.9 °F /  1.6 °C 22.8 °F /  -5.1 °C 29.94in /  1013.8hPa NW 9.1mph /  14.6km/h 24mph /  38.6km/h 60.9% 0.00in /  0mm 0 W/m2
03:14 34.7 °F /  1.5 °C 22.3 °F /  -5.4 °C 29.94in /  1013.8hPa NW 8mph /  12.9km/h 24mph /  38.6km/h 60% 0.00in /  0mm 0 W/m2
03:19 34.6 °F /  1.4 °C 22.5 °F /  -5.3 °C 29.95in /  1014.1hPa NW 7.3mph /  11.7km/h 24mph /  38.6km/h 60.8% 0.00in /  0mm 0 W/m2
03:24 34.5 °F /  1.4 °C 22.7 °F /  -5.2 °C 29.95in /  1014.1hPa NW 3.7mph /  6km/h 24mph /  38.6km/h 61.7% 0.00in /  0mm 0 W/m2
03:29 34.4 °F /  1.3 °C 22.9 °F /  -5.1 °C 29.95in /  1014.1hPa NW 4.6mph /  7.4km/h 24mph /  38.6km/h 62.5% 0.00in /  0mm 0 W/m2
03:34 34.2 °F /  1.2 °C 23.1 °F /  -4.9 °C 29.95in /  1014.1hPa NW 4.2mph /  6.8km/h 24mph /  38.6km/h 63.3% 0.00in /  0mm 0 W/m2
03:39 34.1 °F /  1.2 °C 22.9 °F /  -5.1 °C 29.95in /  1014.1hPa NW 7.4mph /  11.9km/h 20mph /  32.2km/h 63.2% 0.00in /  0mm 0 W/m2
03:44 33.9 °F /  1.1 °C 23.2 °F /  -4.9 °C 29.95in /  1014.1hPa NW 4.2mph /  6.8km/h 20mph /  32.2km/h 64.5% 0.00in /  0mm 0 W/m2
03:49 33.7 °F /  0.9 °C 23.5 °F /  -4.7 °C 29.95in /  1014.1hPa NW 7mph /  11.3km/h 20mph /  32.2km/h 65.9% 0.00in /  0mm 0 W/m2
03:54 33.4 °F /  0.8 °C 23.4 °F /  -4.8 °C 29.95in /  1014.1hPa NW 9mph /  14.5km/h 20mph /  32.2km/h 66.4% 0.00in /  0mm 0 W/m2
03:59 33.1 °F /  0.6 °C 23.1 °F /  -4.9 °C 29.96in /  1014.4hPa NW 9.2mph /  14.8km/h 20mph /  32.2km/h 66.3% 0.00in /  0mm 0 W/m2
04:04 32.9 °F /  0.5 °C 22.8 °F /  -5.1 °C 29.96in /  1014.4hPa NW 9.3mph /  15km/h 20mph /  32.2km/h 66% 0.00in /  0mm 0 W/m2
04:09 32.7 °F /  0.4 °C 22.6 °F /  -5.2 °C 29.97in /  1014.8hPa NW 11mph /  17.7km/h 28mph /  45.1km/h 66.2% 0.00in /  0mm 0 W/m2
04:14 32.4 °F /  0.2 °C 22.6 °F /  -5.2 °C 29.97in /  1014.8hPa NW 11.9mph /  19.2km/h 28mph /  45.1km/h 66.7% 0.00in /  0mm 0 W/m2
04:19 32.2 °F /  0.1 °C 21.9 °F /  -5.6 °C 29.97in /  1014.8hPa NW 9.5mph /  15.3km/h 28mph /  45.1km/h 65.4% 0.00in /  0mm 0 W/m2
04:24 32 °F /  0 °C 21.8 °F /  -5.7 °C 29.97in /  1014.8hPa NW 9.2mph /  14.8km/h 28mph /  45.1km/h 65.8% 0.00in /  0mm 0 W/m2
04:29 31.8 °F /  -0.1 °C 20.4 °F /  -6.4 °C 29.97in /  1014.8hPa NW 13.9mph /  22.4km/h 28mph /  45.1km/h 62.4% 0.00in /  0mm 0 W/m2
04:34 31.7 °F /  -0.2 °C 19.5 °F /  -6.9 °C 29.97in /  1014.8hPa NW 6.5mph /  10.5km/h 28mph /  45.1km/h 60.2% 0.00in /  0mm 0 W/m2
04:39 31.6 °F /  -0.2 °C 19.6 °F /  -6.9 °C 29.98in /  1015.1hPa NW 7.2mph /  11.6km/h 17mph /  27.4km/h 60.8% 0.00in /  0mm 0 W/m2
04:44 31.4 °F /  -0.3 °C 19.1 °F /  -7.2 °C 29.98in /  1015.1hPa NW 7.5mph /  12.1km/h 17mph /  27.4km/h 60% 0.00in /  0mm 0 W/m2
04:49 31.1 °F /  -0.5 °C 18.2 °F /  -7.7 °C 29.98in /  1015.1hPa NW 9.9mph /  15.9km/h 23mph /  37km/h 58.2% 0.00in /  0mm 0 W/m2
04:54 31 °F /  -0.6 °C 17.2 °F /  -8.2 °C 29.98in /  1015.1hPa NW 11.3mph /  18.2km/h 23mph /  37km/h 56% 0.00in /  0mm 0 W/m2
04:59 30.8 °F /  -0.7 °C 16.6 °F /  -8.6 °C 29.98in /  1015.1hPa NW 10.1mph /  16.3km/h 23mph /  37km/h 55% 0.00in /  0mm 0 W/m2
05:04 30.7 °F /  -0.7 °C 16.2 °F /  -8.8 °C 29.98in /  1015.1hPa NW 9.1mph /  14.6km/h 23mph /  37km/h 54.5% 0.00in /  0mm 0 W/m2
05:09 30.5 °F /  -0.8 °C 15.8 °F /  -9 °C 29.99in /  1015.5hPa NW 10.6mph /  17.1km/h 27mph /  43.5km/h 53.8% 0.00in /  0mm 0 W/m2
05:14 30.4 °F /  -0.9 °C 15.3 °F /  -9.3 °C 29.99in /  1015.5hPa NW 10.5mph /  16.9km/h 27mph /  43.5km/h 53% 0.00in /  0mm 0 W/m2
05:19 30.3 °F /  -0.9 °C 15.2 °F /  -9.3 °C 30.00in /  1015.8hPa NW 7.3mph /  11.7km/h 27mph /  43.5km/h 53% 0.00in /  0mm 0 W/m2
05:24 30.2 °F /  -1 °C 15.5 °F /  -9.2 °C 30.00in /  1015.8hPa WNW 9.2mph /  14.8km/h 27mph /  43.5km/h 53.7% 0.00in /  0mm 0 W/m2
05:29 30.1 °F /  -1.1 °C 15.2 °F /  -9.3 °C 30.00in /  1015.8hPa WNW 6.5mph /  10.5km/h 27mph /  43.5km/h 53.3% 0.00in /  0mm 0 W/m2
05:34 30 °F /  -1.1 °C 15.2 °F /  -9.3 °C 30.01in /  1016.1hPa NW 8.1mph /  13km/h 27mph /  43.5km/h 53.4% 0.00in /  0mm 0 W/m2
05:39 29.9 °F /  -1.2 °C 14.9 °F /  -9.5 °C 30.01in /  1016.1hPa NW 11.3mph /  18.2km/h 23mph /  37km/h 53% 0.00in /  0mm 0 W/m2
05:44 29.8 °F /  -1.2 °C 14.8 °F /  -9.6 °C 30.01in /  1016.1hPa NW 10.8mph /  17.4km/h 23mph /  37km/h 53% 0.00in /  0mm 0 W/m2
05:49 29.7 °F /  -1.3 °C 14.7 °F /  -9.6 °C 30.01in /  1016.1hPa WNW 9mph /  14.5km/h 23mph /  37km/h 53% 0.00in /  0mm 0 W/m2
05:54 29.7 °F /  -1.3 °C 14.8 °F /  -9.6 °C 30.01in /  1016.1hPa WNW 10.2mph /  16.4km/h 23mph /  37km/h 53.3% 0.00in /  0mm 0 W/m2
05:59 29.6 °F /  -1.3 °C 14.8 °F /  -9.6 °C 30.01in /  1016.1hPa WNW 4.7mph /  7.6km/h 23mph /  37km/h 53.6% 0.00in /  0mm 0 W/m2
06:04 29.4 °F /  -1.4 °C 14.9 °F /  -9.5 °C 30.01in /  1016.1hPa NW 7.5mph /  12.1km/h 23mph /  37km/h 54% 0.00in /  0mm 0 W/m2
06:09 29.3 °F /  -1.5 °C 14.8 °F /  -9.6 °C 30.01in /  1016.1hPa NW 7.9mph /  12.7km/h 16mph /  25.7km/h 54% 0.00in /  0mm 0 W/m2
06:14 29.2 °F /  -1.6 °C 14.9 °F /  -9.5 °C 30.02in /  1016.5hPa NW 8.2mph /  13.2km/h 18mph /  29km/h 54.7% 0.00in /  0mm 0 W/m2
06:19 29.1 °F /  -1.6 °C 14.7 °F /  -9.6 °C 30.02in /  1016.5hPa NW 4.2mph /  6.8km/h 18mph /  29km/h 54.4% 0.00in /  0mm 0 W/m2
06:24 29 °F /  -1.7 °C 14.8 °F /  -9.6 °C 30.02in /  1016.5hPa WNW 7.9mph /  12.7km/h 18mph /  29km/h 54.8% 0.00in /  0mm 0 W/m2
06:29 28.9 °F /  -1.7 °C 14.5 °F /  -9.7 °C 30.02in /  1016.5hPa WNW 7.8mph /  12.6km/h 18mph /  29km/h 54.5% 0.00in /  0mm 0 W/m2
06:34 28.8 °F /  -1.8 °C 14.6 °F /  -9.7 °C 30.02in /  1016.5hPa NW 6.4mph /  10.3km/h 18mph /  29km/h 55% 0.00in /  0mm 0 W/m2
06:39 28.6 °F /  -1.9 °C 14.5 °F /  -9.7 °C 30.03in /  1016.8hPa NW 5.8mph /  9.3km/h 15mph /  24.1km/h 55% 0.00in /  0mm 0 W/m2
06:44 28.5 °F /  -1.9 °C 14.4 °F /  -9.8 °C 30.03in /  1016.8hPa NW 5.8mph /  9.3km/h 15mph /  24.1km/h 55% 0.00in /  0mm 0 W/m2
06:49 28.4 °F /  -2 °C 14.3 °F /  -9.8 °C 30.03in /  1016.8hPa NW 5.2mph /  8.4km/h 15mph /  24.1km/h 55% 0.00in /  0mm 0 W/m2
06:54 28.3 °F /  -2.1 °C 14.2 °F /  -9.9 °C 30.03in /  1016.8hPa WNW 7.4mph /  11.9km/h 15mph /  24.1km/h 55% 0.00in /  0mm 0 W/m2
06:59 28.2 °F /  -2.1 °C 14.3 °F /  -9.8 °C 30.03in /  1016.8hPa NW 4.7mph /  7.6km/h 15mph /  24.1km/h 55.5% 0.00in /  0mm 0 W/m2
07:04 28.1 °F /  -2.2 °C 14.4 °F /  -9.8 °C 30.03in /  1016.8hPa WNW 6.8mph /  10.9km/h 19mph /  30.6km/h 56% 0.00in /  0mm 0 W/m2
07:09 28 °F /  -2.2 °C 14.3 °F /  -9.8 °C 30.03in /  1016.8hPa WNW 7.4mph /  11.9km/h 19mph /  30.6km/h 56% 0.00in /  0mm 0 W/m2
07:14 27.9 °F /  -2.3 °C 14.3 °F /  -9.8 °C 30.03in /  1016.8hPa NW 5.3mph /  8.5km/h 19mph /  30.6km/h 56% 0.00in /  0mm 0 W/m2
07:19 27.8 °F /  -2.3 °C 14.2 °F /  -9.9 °C 30.03in /  1016.8hPa NW 5.6mph /  9km/h 19mph /  30.6km/h 56% 0.00in /  0mm 0 W/m2
07:24 27.7 °F /  -2.4 °C 14.2 °F /  -9.9 °C 30.03in /  1016.8hPa NW 8.3mph /  13.4km/h 20mph /  32.2km/h 56.3% 0.00in /  0mm 0 W/m2
07:29 27.7 °F /  -2.4 °C 14.2 °F /  -9.9 °C 30.03in /  1016.8hPa WNW 5.3mph /  8.5km/h 20mph /  32.2km/h 56.3% 0.00in /  0mm 7 W/m2
07:34 27.6 °F /  -2.4 °C 14.4 °F /  -9.8 °C 30.04in /  1017.2hPa WNW 5.2mph /  8.4km/h 20mph /  32.2km/h 57% 0.00in /  0mm 12 W/m2
07:39 27.6 °F /  -2.4 °C 14.4 °F /  -9.8 °C 30.04in /  1017.2hPa WNW 7.4mph /  11.9km/h 14mph /  22.5km/h 57% 0.00in /  0mm 12 W/m2
07:44 27.6 °F /  -2.4 °C 14.4 °F /  -9.8 °C 30.05in /  1017.5hPa WNW 5mph /  8km/h 14mph /  22.5km/h 57% 0.00in /  0mm 16 W/m2
07:49 27.5 °F /  -2.5 °C 14.5 °F /  -9.7 °C 30.05in /  1017.5hPa NW 5.1mph /  8.2km/h 14mph /  22.5km/h 57.4% 0.00in /  0mm 32 W/m2
07:54 27.5 °F /  -2.5 °C 14.7 °F /  -9.6 °C 30.05in /  1017.5hPa WNW 3.6mph /  5.8km/h 14mph /  22.5km/h 58% 0.00in /  0mm 56 W/m2
07:59 27.7 °F /  -2.4 °C 14.8 °F /  -9.6 °C 30.05in /  1017.5hPa WNW 2mph /  3.2km/h 14mph /  22.5km/h 57.8% 0.00in /  0mm 56 W/m2
08:00 27.8 °F /  -2.3 °C 14.6 °F /  -9.7 °C 30.05in /  1017.5hPa Calm   14mph /  22.5km/h 57% 0.00in /  0mm 21 W/m2
08:09 28.1 °F /  -2.2 °C 15.3 °F /  -9.3 °C 30.06in /  1017.8hPa West 2mph /  3.2km/h 10mph /  16.1km/h 58% 0.00in /  0mm 111 W/m2
08:14 28.7 °F /  -1.8 °C 15.5 °F /  -9.2 °C 30.06in /  1017.8hPa WNW 6.8mph /  10.9km/h 18mph /  29km/h 57.2% 0.00in /  0mm 118 W/m2
08:19 29 °F /  -1.7 °C 15.2 °F /  -9.3 °C 30.06in /  1017.8hPa WNW 7.7mph /  12.4km/h 18mph /  29km/h 55.7% 0.00in /  0mm 148 W/m2
08:24 29.3 °F /  -1.5 °C 15.6 °F /  -9.1 °C 30.05in /  1017.5hPa NW 5.6mph /  9km/h 18mph /  29km/h 56% 0.00in /  0mm 142 W/m2
08:29 29.5 °F /  -1.4 °C 15.7 °F /  -9.1 °C 30.06in /  1017.8hPa WNW 6.6mph /  10.6km/h 18mph /  29km/h 55.8% 0.00in /  0mm 181 W/m2
08:34 29.7 °F /  -1.3 °C 15.7 °F /  -9.1 °C 30.06in /  1017.8hPa WNW 9.1mph /  14.6km/h 19mph /  30.6km/h 55.5% 0.00in /  0mm 220 W/m2
08:39 29.8 °F /  -1.2 °C 15.4 °F /  -9.2 °C 30.06in /  1017.8hPa WNW 13.1mph /  21.1km/h 20mph /  32.2km/h 54.5% 0.00in /  0mm 221 W/m2
08:44 29.6 °F /  -1.3 °C 15.2 °F /  -9.3 °C 30.07in /  1018.2hPa WNW 11.3mph /  18.2km/h 20mph /  32.2km/h 54.4% 0.00in /  0mm 220 W/m2
08:49 29.4 °F /  -1.4 °C 15.3 °F /  -9.3 °C 30.07in /  1018.2hPa NW 7.9mph /  12.7km/h 20mph /  32.2km/h 55% 0.00in /  0mm 220 W/m2
08:54 29.6 °F /  -1.3 °C 15.4 °F /  -9.2 °C 30.07in /  1018.2hPa NW 3.9mph /  6.3km/h 20mph /  32.2km/h 55% 0.00in /  0mm 248 W/m2
08:59 29.9 °F /  -1.2 °C 16 °F /  -8.9 °C 30.07in /  1018.2hPa WNW 3.3mph /  5.3km/h 20mph /  32.2km/h 55.8% 0.00in /  0mm 244 W/m2
09:04 30.2 °F /  -1 °C 16.1 °F /  -8.8 °C 30.08in /  1018.5hPa WNW 8.2mph /  13.2km/h 20mph /  32.2km/h 55.3% 0.00in /  0mm 260 W/m2
09:09 30.2 °F /  -1 °C 15.6 °F /  -9.1 °C 30.08in /  1018.5hPa WNW 11.1mph /  17.9km/h 20mph /  32.2km/h 54% 0.00in /  0mm 243 W/m2
09:14 30 °F /  -1.1 °C 15.2 °F /  -9.3 °C 30.08in /  1018.5hPa NW 9mph /  14.5km/h 22mph /  35.4km/h 53.7% 0.00in /  0mm 190 W/m2
09:19 29.7 °F /  -1.3 °C 15.1 °F /  -9.4 °C 30.08in /  1018.5hPa NW 7.4mph /  11.9km/h 22mph /  35.4km/h 54% 0.00in /  0mm 162 W/m2
09:24 29.5 °F /  -1.4 °C 15.2 °F /  -9.3 °C 30.08in /  1018.5hPa WNW 6.2mph /  10km/h 22mph /  35.4km/h 54.6% 0.00in /  0mm 195 W/m2
09:29 29.6 °F /  -1.3 °C 15.4 °F /  -9.2 °C 30.08in /  1018.5hPa WNW 5.8mph /  9.3km/h 22mph /  35.4km/h 55% 0.00in /  0mm 206 W/m2
09:34 29.7 °F /  -1.3 °C 15.7 °F /  -9.1 °C 30.08in /  1018.5hPa WNW 2.1mph /  3.4km/h 22mph /  35.4km/h 55.4% 0.00in /  0mm 243 W/m2
09:39 29.9 °F /  -1.2 °C 15.7 °F /  -9.1 °C 30.08in /  1018.5hPa WNW 8.8mph /  14.2km/h 16mph /  25.7km/h 55% 0.00in /  0mm 272 W/m2
09:44 29.9 °F /  -1.2 °C 14.8 °F /  -9.6 °C 30.09in /  1018.8hPa NW 6.3mph /  10.1km/h 17mph /  27.4km/h 52.9% 0.00in /  0mm 172 W/m2
09:49 29.8 °F /  -1.2 °C 14.6 °F /  -9.7 °C 30.09in /  1018.8hPa WNW 7mph /  11.3km/h 17mph /  27.4km/h 52.7% 0.00in /  0mm 156 W/m2
09:54 29.8 °F /  -1.2 °C 14.6 °F /  -9.7 °C 30.09in /  1018.8hPa WNW 6.1mph /  9.8km/h 17mph /  27.4km/h 52.7% 0.00in /  0mm 234 W/m2
09:59 29.8 °F /  -1.2 °C 15 °F /  -9.4 °C 30.08in /  1018.5hPa NW 4.5mph /  7.2km/h 17mph /  27.4km/h 53.4% 0.00in /  0mm 186 W/m2
10:04 29.9 °F /  -1.2 °C 15.1 °F /  -9.4 °C 30.09in /  1018.8hPa NW 6mph /  9.7km/h 17mph /  27.4km/h 53.6% 0.00in /  0mm 186 W/m2
10:09 29.9 °F /  -1.2 °C 14.7 °F /  -9.6 °C 30.08in /  1018.5hPa WNW 9.6mph /  15.4km/h 20mph /  32.2km/h 52.8% 0.00in /  0mm 137 W/m2
10:14 29.7 °F /  -1.3 °C 14.3 °F /  -9.8 °C 30.09in /  1018.8hPa WNW 6.9mph /  11.1km/h 20mph /  32.2km/h 52.2% 0.00in /  0mm 221 W/m2
10:19 29.7 °F /  -1.3 °C 14.7 °F /  -9.6 °C 30.08in /  1018.5hPa WNW 7mph /  11.3km/h 20mph /  32.2km/h 53% 0.00in /  0mm 225 W/m2
10:24 29.9 °F /  -1.2 °C 14.8 °F /  -9.6 °C 30.09in /  1018.8hPa WNW 8.2mph /  13.2km/h 20mph /  32.2km/h 52.9% 0.00in /  0mm 339 W/m2
10:29 30.1 °F /  -1.1 °C 15.1 °F /  -9.4 °C 30.09in /  1018.8hPa WNW 4.8mph /  7.7km/h 20mph /  32.2km/h 53.1% 0.00in /  0mm 471 W/m2
10:34 30.7 °F /  -0.7 °C 15.5 °F /  -9.2 °C 30.08in /  1018.5hPa WNW 5.9mph /  9.5km/h 20mph /  32.2km/h 52.8% 0.00in /  0mm 485 W/m2
10:39 31.1 °F /  -0.5 °C 15.6 °F /  -9.1 °C 30.08in /  1018.5hPa WNW 3mph /  4.8km/h 15mph /  24.1km/h 52% 0.00in /  0mm 471 W/m2
10:44 31.5 °F /  -0.3 °C 16.4 °F /  -8.7 °C 30.08in /  1018.5hPa NW 3.1mph /  5km/h 15mph /  24.1km/h 53% 0.00in /  0mm 420 W/m2
10:49 31.6 °F /  -0.2 °C 17 °F /  -8.3 °C 30.08in /  1018.5hPa NW 3.6mph /  5.8km/h 15mph /  24.1km/h 54.2% 0.00in /  0mm 248 W/m2
10:54 31.8 °F /  -0.1 °C 17.2 °F /  -8.2 °C 30.08in /  1018.5hPa WNW 4.4mph /  7.1km/h 16mph /  25.7km/h 54.2% 0.00in /  0mm 244 W/m2
10:59 31.9 °F /  -0.1 °C 16.5 °F /  -8.6 °C 30.08in /  1018.5hPa WNW 6.1mph /  9.8km/h 16mph /  25.7km/h 52.5% 0.00in /  0mm 404 W/m2
11:04 31.9 °F /  -0.1 °C 16.6 °F /  -8.6 °C 30.08in /  1018.5hPa NW 6.6mph /  10.6km/h 16mph /  25.7km/h 52.7% 0.00in /  0mm 399 W/m2
11:09 31.8 °F /  -0.1 °C 16.4 °F /  -8.7 °C 30.08in /  1018.5hPa NW 3.5mph /  5.6km/h 14mph /  22.5km/h 52.4% 0.00in /  0mm 257 W/m2
11:14 32 °F /  0 °C 16.9 °F /  -8.4 °C 30.08in /  1018.5hPa NW 0.3mph /  0.5km/h 14mph /  22.5km/h 53.4% 0.00in /  0mm 204 W/m2
11:19 32.3 °F /  0.2 °C 17 °F /  -8.3 °C 30.08in /  1018.5hPa WNW 5.1mph /  8.2km/h 14mph /  22.5km/h 52.8% 0.00in /  0mm 288 W/m2
11:24 32.2 °F /  0.1 °C 16.6 °F /  -8.6 °C 30.07in /  1018.2hPa WNW 3mph /  4.8km/h 14mph /  22.5km/h 52% 0.00in /  0mm 134 W/m2
11:29 32.1 °F /  0.1 °C 16.3 °F /  -8.7 °C 30.07in /  1018.2hPa NW 4.6mph /  7.4km/h 14mph /  22.5km/h 51.6% 0.00in /  0mm 141 W/m2
11:34 31.9 °F /  -0.1 °C 15.6 °F /  -9.1 °C 30.07in /  1018.2hPa WNW 7mph /  11.3km/h 16mph /  25.7km/h 50.5% 0.00in /  0mm 206 W/m2
11:39 31.4 °F /  -0.3 °C 14.6 °F /  -9.7 °C 30.07in /  1018.2hPa NW 6.3mph /  10.1km/h 16mph /  25.7km/h 49.3% 0.00in /  0mm 327 W/m2
11:44 31.1 °F /  -0.5 °C 14.3 °F /  -9.8 °C 30.06in /  1017.8hPa WNW 5.3mph /  8.5km/h 16mph /  25.7km/h 49.1% 0.00in /  0mm 327 W/m2
11:49 31 °F /  -0.6 °C 14 °F /  -10 °C 30.06in /  1017.8hPa WNW 9.8mph /  15.8km/h 17mph /  27.4km/h 48.8% 0.00in /  0mm 302 W/m2
11:54 30.9 °F /  -0.6 °C 13.6 °F /  -10.2 °C 30.05in /  1017.5hPa WNW 7.7mph /  12.4km/h 17mph /  27.4km/h 48.3% 0.00in /  0mm 473 W/m2
11:59 30.7 °F /  -0.7 °C 13.4 °F /  -10.3 °C 30.06in /  1017.8hPa WNW 7.7mph /  12.4km/h 17mph /  27.4km/h 48.2% 0.00in /  0mm 601 W/m2
12:00 30.5 °F /  -0.8 °C 13.6 °F /  -10.2 °C 30.05in /  1017.5hPa WNW 18mph /  29km/h 18mph /  29km/h 49% 0.00in /  0mm 601 W/m2
12:09 30.2 °F /  -1 °C 13.2 °F /  -10.4 °C 30.05in /  1017.5hPa WNW 5.1mph /  8.2km/h 14mph /  22.5km/h 48.5% 0.00in /  0mm 417 W/m2
12:14 30.4 °F /  -0.9 °C 13.3 °F /  -10.4 °C 30.06in /  1017.8hPa WNW 4.6mph /  7.4km/h 14mph /  22.5km/h 48.5% 0.00in /  0mm 174 W/m2
12:19 30.8 °F /  -0.7 °C 14.2 °F /  -9.9 °C 30.05in /  1017.5hPa NNW 5mph /  8km/h 14mph /  22.5km/h 49.5% 0.00in /  0mm 580 W/m2
12:24 31.5 °F /  -0.3 °C 14.5 °F /  -9.7 °C 30.05in /  1017.5hPa WNW 3.8mph /  6.1km/h 14mph /  22.5km/h 48.9% 0.00in /  0mm 510 W/m2
12:29 32 °F /  0 °C 14 °F /  -10 °C 30.05in /  1017.5hPa WNW 7.2mph /  11.6km/h 17mph /  27.4km/h 47% 0.00in /  0mm 330 W/m2
12:34 31.6 °F /  -0.2 °C 12.9 °F /  -10.6 °C 30.05in /  1017.5hPa WNW 6.7mph /  10.8km/h 17mph /  27.4km/h 45.3% 0.00in /  0mm 120 W/m2
12:39 31.1 °F /  -0.5 °C 12.9 °F /  -10.6 °C 30.04in /  1017.2hPa WNW 6.8mph /  10.9km/h 16mph /  25.7km/h 46.3% 0.00in /  0mm 141 W/m2
12:44 30.9 °F /  -0.6 °C 13.1 °F /  -10.5 °C 30.04in /  1017.2hPa WNW 2.4mph /  3.9km/h 16mph /  25.7km/h 47.2% 0.00in /  0mm 188 W/m2
12:49 30.9 °F /  -0.6 °C 12.8 °F /  -10.7 °C 30.04in /  1017.2hPa WNW 5.2mph /  8.4km/h 16mph /  25.7km/h 46.5% 0.00in /  0mm 246 W/m2
12:54 31.1 °F /  -0.5 °C 13.3 °F /  -10.4 °C 30.04in /  1017.2hPa NW 4.8mph /  7.7km/h 16mph /  25.7km/h 47.1% 0.00in /  0mm 281 W/m2
12:59 31.2 °F /  -0.4 °C 13.4 °F /  -10.3 °C 30.04in /  1017.2hPa NW 3.4mph /  5.5km/h 16mph /  25.7km/h 47% 0.00in /  0mm 271 W/m2
13:04 31.3 °F /  -0.4 °C 13.2 °F /  -10.4 °C 30.03in /  1016.8hPa WNW 6.9mph /  11.1km/h 16mph /  25.7km/h 46.6% 0.00in /  0mm 320 W/m2
13:09 31.3 °F /  -0.4 °C 12.8 °F /  -10.7 °C 30.04in /  1017.2hPa West 5.3mph /  8.5km/h 15mph /  24.1km/h 45.8% 0.00in /  0mm 105 W/m2
13:14 30.9 °F /  -0.6 °C 12.3 °F /  -10.9 °C 30.03in /  1016.8hPa WNW 3.1mph /  5km/h 15mph /  24.1km/h 45.5% 0.00in /  0mm 176 W/m2
13:19 30.6 °F /  -0.8 °C 12.6 °F /  -10.8 °C 30.02in /  1016.5hPa WNW 4.9mph /  7.9km/h 15mph /  24.1km/h 46.5% 0.00in /  0mm 179 W/m2
13:24 30.2 °F /  -1 °C 12 °F /  -11.1 °C 30.01in /  1016.1hPa WNW 6.4mph /  10.3km/h 15mph /  24.1km/h 46.1% 0.00in /  0mm 97 W/m2
13:29 30 °F /  -1.1 °C 12.5 °F /  -10.8 °C 30.01in /  1016.1hPa WNW 3mph /  4.8km/h 15mph /  24.1km/h 47.5% 0.00in /  0mm 95 W/m2
13:34 30 °F /  -1.1 °C 12.7 °F /  -10.7 °C 30.01in /  1016.1hPa WNW 1.8mph /  2.9km/h 15mph /  24.1km/h 47.9% 0.00in /  0mm 148 W/m2
13:39 30.3 °F /  -0.9 °C 13 °F /  -10.6 °C 30.01in /  1016.1hPa WNW 2.7mph /  4.3km/h 7mph /  11.3km/h 48% 0.00in /  0mm 105 W/m2
13:44 30.5 °F /  -0.8 °C 13.2 °F /  -10.4 °C 30.01in /  1016.1hPa NW 3.2mph /  5.1km/h 9mph /  14.5km/h 48% 0.00in /  0mm 84 W/m2
13:49 30.6 °F /  -0.8 °C 13 °F /  -10.6 °C 30.01in /  1016.1hPa NW 6mph /  9.7km/h 14mph /  22.5km/h 47.3% 0.00in /  0mm 116 W/m2
13:54 30.8 °F /  -0.7 °C 13.1 °F /  -10.5 °C 30.00in /  1015.8hPa West 2.7mph /  4.3km/h 14mph /  22.5km/h 47.3% 0.00in /  0mm 318 W/m2
13:59 31.1 °F /  -0.5 °C 13.3 °F /  -10.4 °C 30.00in /  1015.8hPa WNW 3.1mph /  5km/h 14mph /  22.5km/h 47.2% 0.00in /  0mm 332 W/m2
14:04 31.5 °F /  -0.3 °C 13.4 °F /  -10.3 °C 30.01in /  1016.1hPa WNW 3.9mph /  6.3km/h 14mph /  22.5km/h 46.6% 0.00in /  0mm 269 W/m2
14:09 31.7 °F /  -0.2 °C 13 °F /  -10.6 °C 30.01in /  1016.1hPa WNW 2.5mph /  4km/h 13mph /  20.9km/h 45.5% 0.00in /  0mm 366 W/m2
14:14 32 °F /  0 °C 13.7 °F /  -10.2 °C 30.01in /  1016.1hPa WNW 0.9mph /  1.4km/h 13mph /  20.9km/h 46.2% 0.00in /  0mm 288 W/m2
14:19 32.5 °F /  0.3 °C 14.2 °F /  -9.9 °C 30.01in /  1016.1hPa WSW 2.3mph /  3.7km/h 13mph /  20.9km/h 46.3% 0.00in /  0mm 160 W/m2
14:24 32.6 °F /  0.3 °C 13.2 °F /  -10.4 °C 30.01in /  1016.1hPa WNW 5mph /  8km/h 13mph /  20.9km/h 44.1% 0.00in /  0mm 213 W/m2
14:29 32.3 °F /  0.2 °C 13 °F /  -10.6 °C 30.01in /  1016.1hPa WNW 3.3mph /  5.3km/h 13mph /  20.9km/h 44.3% 0.00in /  0mm 123 W/m2
14:34 32 °F /  0 °C 13.2 °F /  -10.4 °C 30.01in /  1016.1hPa West 1.3mph /  2.1km/h 13mph /  20.9km/h 45.3% 0.00in /  0mm 97 W/m2
14:39 31.9 °F /  -0.1 °C 13.5 °F /  -10.3 °C 30.01in /  1016.1hPa WSW 0.8mph /  1.3km/h 7mph /  11.3km/h 46% 0.00in /  0mm 67 W/m2
14:44 31.7 °F /  -0.2 °C 13 °F /  -10.6 °C 30.01in /  1016.1hPa WSW 1.5mph /  2.4km/h 7mph /  11.3km/h 45.4% 0.00in /  0mm 84 W/m2
14:49 31.5 °F /  -0.3 °C 12.7 °F /  -10.7 °C 30.01in /  1016.1hPa Calm   7mph /  11.3km/h 45.1% 0.00in /  0mm 84 W/m2
14:54 31.2 °F /  -0.4 °C 13 °F /  -10.6 °C 30.01in /  1016.1hPa West 0.9mph /  1.4km/h 7mph /  11.3km/h 46.2% 0.00in /  0mm 77 W/m2
14:59 31.1 °F /  -0.5 °C 12.6 °F /  -10.8 °C 30.01in /  1016.1hPa West 0.3mph /  0.5km/h 7mph /  11.3km/h 45.7% 0.00in /  0mm 84 W/m2
15:04 31.1 °F /  -0.5 °C 12.5 °F /  -10.8 °C 30.02in /  1016.5hPa WNW 3.1mph /  5km/h 9mph /  14.5km/h 45.4% 0.00in /  0mm 77 W/m2
15:09 31 °F /  -0.6 °C 12.3 °F /  -10.9 °C 30.02in /  1016.5hPa West 1.8mph /  2.9km/h 9mph /  14.5km/h 45.3% 0.00in /  0mm 74 W/m2
15:14 31 °F /  -0.6 °C 12.6 °F /  -10.8 °C 30.02in /  1016.5hPa WNW 1.7mph /  2.7km/h 9mph /  14.5km/h 46% 0.00in /  0mm 77 W/m2
15:19 30.9 °F /  -0.6 °C 12.7 °F /  -10.7 °C 30.02in /  1016.5hPa West 3.8mph /  6.1km/h 16mph /  25.7km/h 46.3% 0.00in /  0mm 88 W/m2
15:24 30.7 °F /  -0.7 °C 12.4 °F /  -10.9 °C 30.02in /  1016.5hPa WNW 3.3mph /  5.3km/h 16mph /  25.7km/h 45.9% 0.00in /  0mm 91 W/m2
15:29 30.6 °F /  -0.8 °C 11.8 °F /  -11.2 °C 30.02in /  1016.5hPa West 3mph /  4.8km/h 16mph /  25.7km/h 45.1% 0.00in /  0mm 83 W/m2
15:33 30.4 °F /  -0.9 °C 11.6 °F /  -11.3 °C 30.02in /  1016.5hPa WSW 0.9mph /  1.4km/h 16mph /  25.7km/h 45% 0.00in /  0mm 72 W/m2
15:39 30.3 °F /  -0.9 °C 11.4 °F /  -11.4 °C 30.02in /  1016.5hPa West 4.4mph /  7.1km/h 12mph /  19.3km/h 44.9% 0.00in /  0mm 47 W/m2
15:44 30.1 °F /  -1.1 °C 11.5 °F /  -11.4 °C 30.03in /  1016.8hPa WNW 5.7mph /  9.2km/h 13mph /  20.9km/h 45.2% 0.00in /  0mm 58 W/m2
15:49 30 °F /  -1.1 °C 11.4 °F /  -11.4 °C 30.03in /  1016.8hPa West 2.5mph /  4km/h 13mph /  20.9km/h 45.3% 0.00in /  0mm 60 W/m2
15:54 30 °F /  -1.1 °C 11.5 °F /  -11.4 °C 30.03in /  1016.8hPa WSW 1.4mph /  2.3km/h 13mph /  20.9km/h 45.4% 0.00in /  0mm 51 W/m2
15:59 30 °F /  -1.1 °C 11.6 °F /  -11.3 °C 30.03in /  1016.8hPa WSW 1.8mph /  2.9km/h 13mph /  20.9km/h 45.7% 0.00in /  0mm 40 W/m2
16:00 29.9 °F /  -1.2 °C 11.7 °F /  -11.3 °C 30.03in /  1016.8hPa WNW 3mph /  4.8km/h 13mph /  20.9km/h 46% 0.00in /  0mm 28 W/m2
16:09 29.7 °F /  -1.3 °C 10.5 °F /  -11.9 °C 30.03in /  1016.8hPa West 2.9mph /  4.7km/h 10mph /  16.1km/h 44.1% 0.00in /  0mm 32 W/m2
16:14 29.6 °F /  -1.3 °C 11 °F /  -11.7 °C 30.03in /  1016.8hPa West 0.6mph /  1km/h 10mph /  16.1km/h 45.3% 0.00in /  0mm 30 W/m2
16:19 29.5 °F /  -1.4 °C 11.9 °F /  -11.2 °C 30.03in /  1016.8hPa WSW 1.7mph /  2.7km/h 10mph /  16.1km/h 47.3% 0.00in /  0mm 26 W/m2
16:24 29.3 °F /  -1.5 °C 12.3 °F /  -10.9 °C 30.03in /  1016.8hPa WSW 2mph /  3.2km/h 10mph /  16.1km/h 48.5% 0.00in /  0mm 18 W/m2
16:29 29.1 °F /  -1.6 °C 12.3 °F /  -10.9 °C 30.04in /  1017.2hPa West 0.8mph /  1.3km/h 10mph /  16.1km/h 48.9% 0.00in /  0mm 14 W/m2
16:34 29 °F /  -1.7 °C 12.5 °F /  -10.8 °C 30.04in /  1017.2hPa West 0.3mph /  0.5km/h 10mph /  16.1km/h 49.6% 0.00in /  0mm 11 W/m2
16:39 28.8 °F /  -1.8 °C 12.9 °F /  -10.6 °C 30.04in /  1017.2hPa WSW 0.9mph /  1.4km/h 6mph /  9.7km/h 50.8% 0.00in /  0mm 5 W/m2
16:44 28.6 °F /  -1.9 °C 12.9 °F /  -10.6 °C 30.04in /  1017.2hPa SW 1.6mph /  2.6km/h 10mph /  16.1km/h 51.1% 0.00in /  0mm 0 W/m2
16:49 28.5 °F /  -1.9 °C 12.6 °F /  -10.8 °C 30.04in /  1017.2hPa SW 3.3mph /  5.3km/h 16mph /  25.7km/h 50.9% 0.00in /  0mm 0 W/m2
16:54 28.3 °F /  -2.1 °C 12.3 °F /  -10.9 °C 30.04in /  1017.2hPa WSW 2.1mph /  3.4km/h 16mph /  25.7km/h 50.4% 0.00in /  0mm 0 W/m2
16:59 28.1 °F /  -2.2 °C 11.9 °F /  -11.2 °C 30.04in /  1017.2hPa WSW 2mph /  3.2km/h 16mph /  25.7km/h 50.1% 0.00in /  0mm 0 W/m2
17:04 28 °F /  -2.2 °C 11.6 °F /  -11.3 °C 30.05in /  1017.5hPa WSW 3.1mph /  5km/h 16mph /  25.7km/h 49.7% 0.00in /  0mm 0 W/m2
17:09 27.8 °F /  -2.3 °C 11.4 °F /  -11.4 °C 30.05in /  1017.5hPa West 2.3mph /  3.7km/h 16mph /  25.7km/h 49.7% 0.00in /  0mm 0 W/m2
17:14 27.6 °F /  -2.4 °C 11.1 °F /  -11.6 °C 30.04in /  1017.2hPa WSW 2.6mph /  4.2km/h 16mph /  25.7km/h 49.2% 0.00in /  0mm 0 W/m2
17:19 27.5 °F /  -2.5 °C 10.8 °F /  -11.8 °C 30.04in /  1017.2hPa WSW 1.8mph /  2.9km/h 16mph /  25.7km/h 49% 0.00in /  0mm 0 W/m2
17:24 27.3 °F /  -2.6 °C 10.6 °F /  -11.9 °C 30.05in /  1017.5hPa WSW 4.3mph /  6.9km/h 16mph /  25.7km/h 49% 0.00in /  0mm 0 W/m2
17:29 27.1 °F /  -2.7 °C 10.5 °F /  -11.9 °C 30.06in /  1017.8hPa West 2.8mph /  4.5km/h 16mph /  25.7km/h 49% 0.00in /  0mm 0 W/m2
17:34 27 °F /  -2.8 °C 10.1 °F /  -12.2 °C 30.06in /  1017.8hPa West 6mph /  9.7km/h 16mph /  25.7km/h 48.4% 0.00in /  0mm 0 W/m2
17:39 26.8 °F /  -2.9 °C 9.5 °F /  -12.5 °C 30.06in /  1017.8hPa West 3mph /  4.8km/h 16mph /  25.7km/h 47.5% 0.00in /  0mm 0 W/m2
17:44 26.7 °F /  -2.9 °C 9.5 °F /  -12.5 °C 30.06in /  1017.8hPa West 3.7mph /  6km/h 16mph /  25.7km/h 47.8% 0.00in /  0mm 0 W/m2
17:49 26.6 °F /  -3 °C 9.4 °F /  -12.6 °C 30.06in /  1017.8hPa West 4.2mph /  6.8km/h 16mph /  25.7km/h 47.7% 0.00in /  0mm 0 W/m2
17:54 26.4 °F /  -3.1 °C 9 °F /  -12.8 °C 30.06in /  1017.8hPa West 5.1mph /  8.2km/h 16mph /  25.7km/h 47.2% 0.00in /  0mm 0 W/m2
17:59 26.3 °F /  -3.2 °C 9.1 °F /  -12.7 °C 30.07in /  1018.2hPa West 3.7mph /  6km/h 16mph /  25.7km/h 47.8% 0.00in /  0mm 0 W/m2
18:04 26.1 °F /  -3.3 °C 9.2 °F /  -12.7 °C 30.06in /  1017.8hPa West 4.3mph /  6.9km/h 16mph /  25.7km/h 48% 0.00in /  0mm 0 W/m2
18:09 26 °F /  -3.3 °C 9.2 °F /  -12.7 °C 30.07in /  1018.2hPa WSW 1.8mph /  2.9km/h 10mph /  16.1km/h 48.2% 0.00in /  0mm 0 W/m2
18:14 25.9 °F /  -3.4 °C 9.4 °F /  -12.6 °C 30.08in /  1018.5hPa WSW 1.8mph /  2.9km/h 10mph /  16.1km/h 49% 0.00in /  0mm 0 W/m2
18:19 25.8 °F /  -3.4 °C 9.5 °F /  -12.5 °C 30.08in /  1018.5hPa West 1.1mph /  1.8km/h 10mph /  16.1km/h 49.3% 0.00in /  0mm 0 W/m2
18:24 25.7 °F /  -3.5 °C 9.3 °F /  -12.6 °C 30.08in /  1018.5hPa WSW 1.8mph /  2.9km/h 10mph /  16.1km/h 49.3% 0.00in /  0mm 0 W/m2
18:29 25.5 °F /  -3.6 °C 9.3 °F /  -12.6 °C 30.08in /  1018.5hPa WSW 1.2mph /  1.9km/h 10mph /  16.1km/h 49.7% 0.00in /  0mm 0 W/m2
18:34 25.4 °F /  -3.7 °C 9.4 °F /  -12.6 °C 30.08in /  1018.5hPa West 1.7mph /  2.7km/h 11mph /  17.7km/h 50% 0.00in /  0mm 0 W/m2
18:39 25.3 °F /  -3.7 °C 9.2 °F /  -12.7 °C 30.08in /  1018.5hPa West 3.8mph /  6.1km/h 12mph /  19.3km/h 50% 0.00in /  0mm 0 W/m2
18:44 25.2 °F /  -3.8 °C 9.4 °F /  -12.6 °C 30.08in /  1018.5hPa West 1.5mph /  2.4km/h 12mph /  19.3km/h 50.5% 0.00in /  0mm 0 W/m2
18:49 25.1 °F /  -3.8 °C 9.5 °F /  -12.5 °C 30.08in /  1018.5hPa West 1.5mph /  2.4km/h 12mph /  19.3km/h 51% 0.00in /  0mm 0 W/m2
18:54 25 °F /  -3.9 °C 9.4 °F /  -12.6 °C 30.08in /  1018.5hPa West 1.5mph /  2.4km/h 12mph /  19.3km/h 51% 0.00in /  0mm 0 W/m2
18:59 24.8 °F /  -4 °C 9.7 °F /  -12.4 °C 30.08in /  1018.5hPa West 1.5mph /  2.4km/h 12mph /  19.3km/h 52% 0.00in /  0mm 0 W/m2
19:04 24.7 °F /  -4.1 °C 9.5 °F /  -12.5 °C 30.08in /  1018.5hPa West 0.7mph /  1.1km/h 12mph /  19.3km/h 51.8% 0.00in /  0mm 0 W/m2
19:09 24.6 °F /  -4.1 °C 9.5 °F /  -12.5 °C 30.08in /  1018.5hPa West 0.9mph /  1.4km/h 7mph /  11.3km/h 52% 0.00in /  0mm 0 W/m2
19:14 24.5 °F /  -4.2 °C 9.4 °F /  -12.6 °C 30.08in /  1018.5hPa West 0.5mph /  0.8km/h 7mph /  11.3km/h 52% 0.00in /  0mm 0 W/m2
19:19 24.3 °F /  -4.3 °C 9.3 °F /  -12.6 °C 30.08in /  1018.5hPa West 0.1mph /  0.2km/h 7mph /  11.3km/h 52% 0.00in /  0mm 0 W/m2
19:24 24.2 °F /  -4.3 °C 9.6 °F /  -12.4 °C 30.08in /  1018.5hPa Calm   7mph /  11.3km/h 53% 0.00in /  0mm 0 W/m2
19:29 24.1 °F /  -4.4 °C 9.5 °F /  -12.5 °C 30.08in /  1018.5hPa Calm   7mph /  11.3km/h 53% 0.00in /  0mm 0 W/m2
19:34 24 °F /  -4.4 °C 9.4 °F /  -12.6 °C 30.08in /  1018.5hPa Calm   7mph /  11.3km/h 53.1% 0.00in /  0mm 0 W/m2
19:39 23.8 °F /  -4.6 °C 9.5 °F /  -12.5 °C 30.08in /  1018.5hPa Calm     53.7% 0.00in /  0mm 0 W/m2
19:43 23.6 °F /  -4.7 °C 9 °F /  -12.8 °C 30.08in /  1018.5hPa Calm     53% 0.00in /  0mm 0 W/m2
19:49 23.4 °F /  -4.8 °C 9.2 °F /  -12.7 °C 30.08in /  1018.5hPa Calm     54% 0.00in /  0mm 0 W/m2
19:53 23.3 °F /  -4.8 °C 9.1 °F /  -12.7 °C 30.08in /  1018.5hPa Calm     54% 0.00in /  0mm 0 W/m2
20:04 22.8 °F /  -5.1 °C 9.1 °F /  -12.7 °C 30.08in /  1018.5hPa Calm     55% 0.00in /  0mm 0 W/m2
20:09 22.7 °F /  -5.2 °C 9 °F /  -12.8 °C 30.08in /  1018.5hPa West 0.1mph /  0.2km/h 2mph /  3.2km/h 55.1% 0.00in /  0mm 0 W/m2
20:14 22.6 °F /  -5.2 °C 9.3 °F /  -12.6 °C 30.08in /  1018.5hPa Calm   2mph /  3.2km/h 56% 0.00in /  0mm 0 W/m2
20:19 22.5 °F /  -5.3 °C 9.3 °F /  -12.6 °C 30.08in /  1018.5hPa Calm   2mph /  3.2km/h 56.4% 0.00in /  0mm 0 W/m2
20:24 22.3 °F /  -5.4 °C 9.5 °F /  -12.5 °C 30.09in /  1018.8hPa Calm   2mph /  3.2km/h 57.1% 0.00in /  0mm 0 W/m2
20:29 22.2 °F /  -5.4 °C 9.5 °F /  -12.5 °C 30.09in /  1018.8hPa Calm   2mph /  3.2km/h 57.6% 0.00in /  0mm 0 W/m2
20:34 22.1 °F /  -5.5 °C 9.6 °F /  -12.4 °C 30.08in /  1018.5hPa Calm   2mph /  3.2km/h 58% 0.00in /  0mm 0 W/m2
20:39 22 °F /  -5.6 °C 9.5 °F /  -12.5 °C 30.08in /  1018.5hPa Calm     58.2% 0.00in /  0mm 0 W/m2
20:44 21.9 °F /  -5.6 °C 9.8 °F /  -12.3 °C 30.08in /  1018.5hPa Calm     59% 0.00in /  0mm 0 W/m2
20:49 21.8 °F /  -5.7 °C 9.7 °F /  -12.4 °C 30.08in /  1018.5hPa Calm     59% 0.00in /  0mm 0 W/m2
20:54 21.8 °F /  -5.7 °C 9.7 °F /  -12.4 °C 30.08in /  1018.5hPa Calm     59% 0.00in /  0mm 0 W/m2
20:59 21.8 °F /  -5.7 °C 9.7 °F /  -12.4 °C 30.08in /  1018.5hPa Calm     59% 0.00in /  0mm 0 W/m2
21:04 21.7 °F /  -5.7 °C 9.6 °F /  -12.4 °C 30.08in /  1018.5hPa Calm     59% 0.00in /  0mm 0 W/m2
21:09 21.6 °F /  -5.8 °C 9.7 °F /  -12.4 °C 30.08in /  1018.5hPa Calm     59.5% 0.00in /  0mm 0 W/m2
21:14 21.5 °F /  -5.8 °C 10.2 °F /  -12.1 °C 30.08in /  1018.5hPa Calm     61% 0.00in /  0mm 0 W/m2
21:19 21.3 °F /  -5.9 °C 10 °F /  -12.2 °C 30.08in /  1018.5hPa Calm     61% 0.00in /  0mm 0 W/m2
21:24 21.2 °F /  -6 °C 9.9 °F /  -12.3 °C 30.08in /  1018.5hPa Calm     61.1% 0.00in /  0mm 0 W/m2
21:29 21.1 °F /  -6.1 °C 10.1 °F /  -12.2 °C 30.08in /  1018.5hPa Calm     62% 0.00in /  0mm 0 W/m2
21:34 20.9 °F /  -6.2 °C 10.3 °F /  -12.1 °C 30.08in /  1018.5hPa Calm     63.2% 0.00in /  0mm 0 W/m2
21:39 20.7 °F /  -6.3 °C 10.5 °F /  -11.9 °C 30.08in /  1018.5hPa Calm     64% 0.00in /  0mm 0 W/m2
21:44 20.6 °F /  -6.3 °C 10.8 °F /  -11.8 °C 30.08in /  1018.5hPa Calm     65.2% 0.00in /  0mm 0 W/m2
21:49 20.5 °F /  -6.4 °C 11 °F /  -11.7 °C 30.08in /  1018.5hPa Calm     66% 0.00in /  0mm 0 W/m2
21:54 20.4 °F /  -6.4 °C 10.8 °F /  -11.8 °C 30.08in /  1018.5hPa Calm     66% 0.00in /  0mm 0 W/m2
21:59 20.3 °F /  -6.5 °C 10.9 °F /  -11.7 °C 30.08in /  1018.5hPa Calm     66.3% 0.00in /  0mm 0 W/m2
22:04 20.2 °F /  -6.6 °C 11 °F /  -11.7 °C 30.08in /  1018.5hPa Calm     67% 0.00in /  0mm 0 W/m2
22:09 20.2 °F /  -6.6 °C 11 °F /  -11.7 °C 30.07in /  1018.2hPa Calm     67% 0.00in /  0mm 0 W/m2
22:14 20.2 °F /  -6.6 °C 11.1 °F /  -11.6 °C 30.08in /  1018.5hPa Calm     67.4% 0.00in /  0mm 0 W/m2
22:19 20.1 °F /  -6.6 °C 11.2 °F /  -11.6 °C 30.07in /  1018.2hPa Calm     68% 0.00in /  0mm 0 W/m2
22:24 19.9 °F /  -6.7 °C 11.4 °F /  -11.4 °C 30.08in /  1018.5hPa Calm     68.8% 0.00in /  0mm 0 W/m2
22:29 19.8 °F /  -6.8 °C 11.3 °F /  -11.5 °C 30.07in /  1018.2hPa Calm     69% 0.00in /  0mm 0 W/m2
22:34 19.8 °F /  -6.8 °C 11.3 °F /  -11.5 °C 30.07in /  1018.2hPa Calm     69% 0.00in /  0mm 0 W/m2
22:39 19.7 °F /  -6.8 °C 11.2 °F /  -11.6 °C 30.08in /  1018.5hPa Calm     69% 0.00in /  0mm 0 W/m2
22:44 19.5 °F /  -6.9 °C 11.1 °F /  -11.6 °C 30.08in /  1018.5hPa Calm     69.3% 0.00in /  0mm 0 W/m2
22:49 19.4 °F /  -7 °C 11.5 °F /  -11.4 °C 30.08in /  1018.5hPa Calm     70.7% 0.00in /  0mm 0 W/m2
22:54 19.3 °F /  -7.1 °C 11.2 °F /  -11.6 °C 30.08in /  1018.5hPa Calm     70.3% 0.00in /  0mm 0 W/m2
22:59 19.2 °F /  -7.1 °C 11.2 °F /  -11.6 °C 30.08in /  1018.5hPa Calm     70.6% 0.00in /  0mm 0 W/m2
23:00 19.1 °F /  -7.2 °C 11.3 °F /  -11.5 °C 30.08in /  1018.5hPa Calm     71% 0.00in /  0mm 0 W/m2
23:09 18.9 °F /  -7.3 °C 11.1 °F /  -11.6 °C 30.08in /  1018.5hPa Calm     71.1% 0.00in /  0mm 0 W/m2
23:14 18.8 °F /  -7.3 °C 11.3 °F /  -11.5 °C 30.08in /  1018.5hPa Calm     72% 0.00in /  0mm 0 W/m2
23:19 18.6 °F /  -7.4 °C 11.1 °F /  -11.6 °C 30.09in /  1018.8hPa Calm     72% 0.00in /  0mm 0 W/m2
23:24 18.5 °F /  -7.5 °C 11.2 °F /  -11.6 °C 30.09in /  1018.8hPa Calm     72.7% 0.00in /  0mm 0 W/m2
23:29 18.4 °F /  -7.6 °C 11.3 °F /  -11.5 °C 30.09in /  1018.8hPa Calm     73.2% 0.00in /  0mm 0 W/m2
23:34 18.3 °F /  -7.6 °C 11.4 °F /  -11.4 °C 30.09in /  1018.8hPa Calm   1mph /  1.6km/h 73.8% 0.00in /  0mm 0 W/m2
23:39 18.3 °F /  -7.6 °C 11.4 °F /  -11.4 °C 30.09in /  1018.8hPa West 0.3mph /  0.5km/h 4mph /  6.4km/h 74% 0.00in /  0mm 0 W/m2
23:44 18.4 °F /  -7.6 °C 11.3 °F /  -11.5 °C 30.10in /  1019.2hPa Calm   4mph /  6.4km/h 73.3% 0.00in /  0mm 0 W/m2
23:49 18.4 °F /  -7.6 °C 11.5 °F /  -11.4 °C 30.10in /  1019.2hPa West 0.2mph /  0.3km/h 4mph /  6.4km/h 73.9% 0.00in /  0mm 0 W/m2
23:54 18.4 °F /  -7.6 °C 11.5 °F /  -11.4 °C 30.10in /  1019.2hPa West 0.3mph /  0.5km/h 4mph /  6.4km/h 74% 0.00in /  0mm 0 W/m2
23:59 18.5 °F /  -7.5 °C 11.6 °F /  -11.3 °C 30.10in /  1019.2hPa West 1mph /  1.6km/h 5mph /  8km/h 74% 0.00in /  0mm 0 W/m2
Hartford County Weather
Compliments of Weather Underground - 2 mb